sensor_id;sensor_type;location;lat;lon;timestamp;pressure;altitude;pressure_sealevel;temperature
15680;BMP180;15488;48.114;11.532;2023-01-29T00:00:07;96140.00;;;9.40
15680;BMP180;15488;48.114;11.532;2023-01-29T00:02:36;96136.00;;;9.30
15680;BMP180;15488;48.114;11.532;2023-01-29T00:05:05;96131.00;;;9.40
15680;BMP180;15488;48.114;11.532;2023-01-29T00:07:33;96138.00;;;9.40
15680;BMP180;15488;48.114;11.532;2023-01-29T00:10:00;96132.00;;;9.40
15680;BMP180;15488;48.114;11.532;2023-01-29T00:12:27;96140.00;;;9.10
15680;BMP180;15488;48.114;11.532;2023-01-29T00:14:55;96130.00;;;9.40
15680;BMP180;15488;48.114;11.532;2023-01-29T00:17:22;96129.00;;;9.40
15680;BMP180;15488;48.114;11.532;2023-01-29T00:19:51;96139.00;;;9.40
15680;BMP180;15488;48.114;11.532;2023-01-29T00:22:21;96139.00;;;9.50
15680;BMP180;15488;48.114;11.532;2023-01-29T00:24:49;96143.00;;;9.40
15680;BMP180;15488;48.114;11.532;2023-01-29T00:27:16;96146.00;;;9.40
15680;BMP180;15488;48.114;11.532;2023-01-29T00:29:44;96141.00;;;9.40
15680;BMP180;15488;48.114;11.532;2023-01-29T00:32:32;96152.00;;;9.40
15680;BMP180;15488;48.114;11.532;2023-01-29T00:35:01;96152.00;;;9.50
15680;BMP180;15488;48.114;11.532;2023-01-29T00:37:28;96150.00;;;9.50
15680;BMP180;15488;48.114;11.532;2023-01-29T00:39:55;96150.00;;;9.40
15680;BMP180;15488;48.114;11.532;2023-01-29T00:42:23;96159.00;;;9.40
15680;BMP180;15488;48.114;11.532;2023-01-29T00:45:09;96151.00;;;9.40
15680;BMP180;15488;48.114;11.532;2023-01-29T00:47:37;96151.00;;;9.40
15680;BMP180;15488;48.114;11.532;2023-01-29T00:50:07;96154.00;;;9.40
15680;BMP180;15488;48.114;11.532;2023-01-29T00:52:36;96152.00;;;9.40
15680;BMP180;15488;48.114;11.532;2023-01-29T00:55:05;96155.00;;;9.40
15680;BMP180;15488;48.114;11.532;2023-01-29T00:57:34;96153.00;;;9.40
15680;BMP180;15488;48.114;11.532;2023-01-29T01:00:02;96153.00;;;9.40
15680;BMP180;15488;48.114;11.532;2023-01-29T01:02:30;96082.00;;;9.40
15680;BMP180;15488;48.114;11.532;2023-01-29T01:05:17;96150.00;;;9.40
15680;BMP180;15488;48.114;11.532;2023-01-29T01:07:45;96150.00;;;9.40
15680;BMP180;15488;48.114;11.532;2023-01-29T01:10:14;96141.00;;;9.40
15680;BMP180;15488;48.114;11.532;2023-01-29T01:12:48;96151.00;;;9.40
15680;BMP180;15488;48.114;11.532;2023-01-29T01:15:17;96149.00;;;9.40
15680;BMP180;15488;48.114;11.532;2023-01-29T01:17:45;96158.00;;;9.40
15680;BMP180;15488;48.114;11.532;2023-01-29T01:20:15;96155.00;;;9.40
15680;BMP180;15488;48.114;11.532;2023-01-29T01:22:43;96149.00;;;9.40
15680;BMP180;15488;48.114;11.532;2023-01-29T01:25:10;96154.00;;;9.40
15680;BMP180;15488;48.114;11.532;2023-01-29T01:27:38;96160.00;;;9.40
15680;BMP180;15488;48.114;11.532;2023-01-29T01:30:09;96157.00;;;9.40
15680;BMP180;15488;48.114;11.532;2023-01-29T01:32:37;96159.00;;;9.40
15680;BMP180;15488;48.114;11.532;2023-01-29T01:35:05;96158.00;;;9.30
15680;BMP180;15488;48.114;11.532;2023-01-29T01:37:34;96164.00;;;9.30
15680;BMP180;15488;48.114;11.532;2023-01-29T01:40:05;96164.00;;;9.30
15680;BMP180;15488;48.114;11.532;2023-01-29T01:42:37;96169.00;;;9.30
15680;BMP180;15488;48.114;11.532;2023-01-29T01:45:16;96160.00;;;9.30
15680;BMP180;15488;48.114;11.532;2023-01-29T01:47:46;96159.00;;;9.30
15680;BMP180;15488;48.114;11.532;2023-01-29T01:50:16;96159.00;;;9.30
15680;BMP180;15488;48.114;11.532;2023-01-29T01:52:48;96149.00;;;9.30
15680;BMP180;15488;48.114;11.532;2023-01-29T01:55:20;96156.00;;;9.30
15680;BMP180;15488;48.114;11.532;2023-01-29T01:57:53;96156.00;;;9.30
15680;BMP180;15488;48.114;11.532;2023-01-29T02:00:25;96154.00;;;9.30
15680;BMP180;15488;48.114;11.532;2023-01-29T02:02:53;96161.00;;;9.30
15680;BMP180;15488;48.114;11.532;2023-01-29T02:05:39;96153.00;;;9.30
15680;BMP180;15488;48.114;11.532;2023-01-29T02:08:29;96154.00;;;9.30
15680;BMP180;15488;48.114;11.532;2023-01-29T02:11:16;96164.00;;;9.30
15680;BMP180;15488;48.114;11.532;2023-01-29T02:13:44;96165.00;;;9.30
15680;BMP180;15488;48.114;11.532;2023-01-29T02:16:11;96161.00;;;9.30
15680;BMP180;15488;48.114;11.532;2023-01-29T02:18:39;96160.00;;;9.30
15680;BMP180;15488;48.114;11.532;2023-01-29T02:21:26;96165.00;;;9.30
15680;BMP180;15488;48.114;11.532;2023-01-29T02:27:06;96167.00;;;9.30
15680;BMP180;15488;48.114;11.532;2023-01-29T02:29:46;96166.00;;;9.00
15680;BMP180;15488;48.114;11.532;2023-01-29T02:32:24;96162.00;;;9.30
15680;BMP180;15488;48.114;11.532;2023-01-29T02:35:04;96165.00;;;9.30
15680;BMP180;15488;48.114;11.532;2023-01-29T02:37:56;96159.00;;;9.30
15680;BMP180;15488;48.114;11.532;2023-01-29T02:40:29;96163.00;;;9.20
15680;BMP180;15488;48.114;11.532;2023-01-29T02:43:05;96153.00;;;9.30
15680;BMP180;15488;48.114;11.532;2023-01-29T02:45:41;96147.00;;;9.30
15680;BMP180;15488;48.114;11.532;2023-01-29T02:48:16;96156.00;;;9.30
15680;BMP180;15488;48.114;11.532;2023-01-29T02:50:46;96136.00;;;9.30
15680;BMP180;15488;48.114;11.532;2023-01-29T02:53:19;96058.00;;;9.30
15680;BMP180;15488;48.114;11.532;2023-01-29T02:55:53;96140.00;;;9.30
15680;BMP180;15488;48.114;11.532;2023-01-29T02:58:29;96137.00;;;9.30
15680;BMP180;15488;48.114;11.532;2023-01-29T03:01:02;96137.00;;;9.30
15680;BMP180;15488;48.114;11.532;2023-01-29T03:03:34;96142.00;;;9.30
15680;BMP180;15488;48.114;11.532;2023-01-29T03:06:06;96136.00;;;9.30
15680;BMP180;15488;48.114;11.532;2023-01-29T03:08:46;96136.00;;;9.30
15680;BMP180;15488;48.114;11.532;2023-01-29T03:11:16;96135.00;;;9.20
15680;BMP180;15488;48.114;11.532;2023-01-29T03:13:46;96137.00;;;9.20
15680;BMP180;15488;48.114;11.532;2023-01-29T03:16:21;96141.00;;;9.20
15680;BMP180;15488;48.114;11.532;2023-01-29T03:18:55;96144.00;;;9.20
15680;BMP180;15488;48.114;11.532;2023-01-29T03:21:29;96146.00;;;9.20
15680;BMP180;15488;48.114;11.532;2023-01-29T03:24:19;96148.00;;;9.20
15680;BMP180;15488;48.114;11.532;2023-01-29T03:27:08;96142.00;;;9.20
15680;BMP180;15488;48.114;11.532;2023-01-29T03:29:55;96151.00;;;9.20
15680;BMP180;15488;48.114;11.532;2023-01-29T03:32:43;96151.00;;;9.20
15680;BMP180;15488;48.114;11.532;2023-01-29T03:35:12;96148.00;;;9.20
15680;BMP180;15488;48.114;11.532;2023-01-29T03:37:47;96156.00;;;9.20
15680;BMP180;15488;48.114;11.532;2023-01-29T03:40:15;96153.00;;;9.20
15680;BMP180;15488;48.114;11.532;2023-01-29T03:42:53;96152.00;;;9.20
15680;BMP180;15488;48.114;11.532;2023-01-29T03:45:29;96153.00;;;9.10
15680;BMP180;15488;48.114;11.532;2023-01-29T03:48:07;96147.00;;;9.20
15680;BMP180;15488;48.114;11.532;2023-01-29T03:50:40;96147.00;;;9.20
15680;BMP180;15488;48.114;11.532;2023-01-29T03:53:19;96140.00;;;9.20
15680;BMP180;15488;48.114;11.532;2023-01-29T03:55:54;96129.00;;;9.20
15680;BMP180;15488;48.114;11.532;2023-01-29T03:58:27;96128.00;;;9.20
15680;BMP180;15488;48.114;11.532;2023-01-29T04:00:59;96119.00;;;9.20
15680;BMP180;15488;48.114;11.532;2023-01-29T04:03:34;96122.00;;;9.20
15680;BMP180;15488;48.114;11.532;2023-01-29T04:06:07;96118.00;;;9.20
15680;BMP180;15488;48.114;11.532;2023-01-29T04:08:43;96108.00;;;9.20
15680;BMP180;15488;48.114;11.532;2023-01-29T04:11:15;96117.00;;;9.10
15680;BMP180;15488;48.114;11.532;2023-01-29T04:13:45;96108.00;;;9.10
15680;BMP180;15488;48.114;11.532;2023-01-29T04:16:16;96118.00;;;9.10
15680;BMP180;15488;48.114;11.532;2023-01-29T04:18:47;96115.00;;;9.10
15680;BMP180;15488;48.114;11.532;2023-01-29T04:21:15;96117.00;;;9.10
15680;BMP180;15488;48.114;11.532;2023-01-29T04:23:42;96117.00;;;9.10
15680;BMP180;15488;48.114;11.532;2023-01-29T04:26:28;96115.00;;;9.10
15680;BMP180;15488;48.114;11.532;2023-01-29T04:29:14;96123.00;;;9.10
15680;BMP180;15488;48.114;11.532;2023-01-29T04:31:46;96110.00;;;9.10
15680;BMP180;15488;48.114;11.532;2023-01-29T04:34:22;96118.00;;;9.10
15680;BMP180;15488;48.114;11.532;2023-01-29T04:37:03;96112.00;;;9.10
15680;BMP180;15488;48.114;11.532;2023-01-29T04:39:42;96122.00;;;9.10
15680;BMP180;15488;48.114;11.532;2023-01-29T04:42:14;96125.00;;;9.10
15680;BMP180;15488;48.114;11.532;2023-01-29T04:44:53;96125.00;;;9.10
15680;BMP180;15488;48.114;11.532;2023-01-29T04:47:31;96120.00;;;9.00
15680;BMP180;15488;48.114;11.532;2023-01-29T04:50:09;96125.00;;;9.00
15680;BMP180;15488;48.114;11.532;2023-01-29T04:52:46;96125.00;;;9.10
15680;BMP180;15488;48.114;11.532;2023-01-29T04:55:22;96125.00;;;9.10
15680;BMP180;15488;48.114;11.532;2023-01-29T04:57:56;96119.00;;;9.10
15680;BMP180;15488;48.114;11.532;2023-01-29T05:00:28;96115.00;;;9.10
15680;BMP180;15488;48.114;11.532;2023-01-29T05:02:59;96113.00;;;9.10
15680;BMP180;15488;48.114;11.532;2023-01-29T05:05:30;96109.00;;;9.10
15680;BMP180;15488;48.114;11.532;2023-01-29T05:07:58;96110.00;;;9.10
15680;BMP180;15488;48.114;11.532;2023-01-29T05:10:26;96124.00;;;9.10
15680;BMP180;15488;48.114;11.532;2023-01-29T05:12:58;96123.00;;;9.10
15680;BMP180;15488;48.114;11.532;2023-01-29T05:15:31;96125.00;;;9.10
15680;BMP180;15488;48.114;11.532;2023-01-29T05:17:59;96129.00;;;9.10
15680;BMP180;15488;48.114;11.532;2023-01-29T05:20:31;96134.00;;;9.10
15680;BMP180;15488;48.114;11.532;2023-01-29T05:22:59;96129.00;;;9.10
15680;BMP180;15488;48.114;11.532;2023-01-29T05:25:28;96133.00;;;9.10
15680;BMP180;15488;48.114;11.532;2023-01-29T05:27:56;96142.00;;;9.10
15680;BMP180;15488;48.114;11.532;2023-01-29T05:30:34;96146.00;;;9.10
15680;BMP180;15488;48.114;11.532;2023-01-29T05:33:02;96154.00;;;9.10
15680;BMP180;15488;48.114;11.532;2023-01-29T05:35:31;96160.00;;;9.10
15680;BMP180;15488;48.114;11.532;2023-01-29T05:37:59;96156.00;;;9.10
15680;BMP180;15488;48.114;11.532;2023-01-29T05:40:27;96156.00;;;9.10
15680;BMP180;15488;48.114;11.532;2023-01-29T05:42:54;96162.00;;;9.10
15680;BMP180;15488;48.114;11.532;2023-01-29T05:45:22;96173.00;;;9.10
15680;BMP180;15488;48.114;11.532;2023-01-29T05:47:49;96162.00;;;9.10
15680;BMP180;15488;48.114;11.532;2023-01-29T05:50:17;96162.00;;;9.10
15680;BMP180;15488;48.114;11.532;2023-01-29T05:52:45;96163.00;;;9.10
15680;BMP180;15488;48.114;11.532;2023-01-29T05:55:13;96166.00;;;9.10
15680;BMP180;15488;48.114;11.532;2023-01-29T05:57:40;96162.00;;;9.10
15680;BMP180;15488;48.114;11.532;2023-01-29T06:00:09;96157.00;;;9.10
15680;BMP180;15488;48.114;11.532;2023-01-29T06:02:38;96158.00;;;9.10
15680;BMP180;15488;48.114;11.532;2023-01-29T06:05:06;96164.00;;;9.10
15680;BMP180;15488;48.114;11.532;2023-01-29T06:07:33;96161.00;;;9.10
15680;BMP180;15488;48.114;11.532;2023-01-29T06:10:03;96164.00;;;9.10
15680;BMP180;15488;48.114;11.532;2023-01-29T06:12:30;96161.00;;;9.10
15680;BMP180;15488;48.114;11.532;2023-01-29T06:14:57;96154.00;;;9.10
15680;BMP180;15488;48.114;11.532;2023-01-29T06:17:25;96152.00;;;9.10
15680;BMP180;15488;48.114;11.532;2023-01-29T06:19:52;96150.00;;;9.10
15680;BMP180;15488;48.114;11.532;2023-01-29T06:22:20;96146.00;;;9.20
15680;BMP180;15488;48.114;11.532;2023-01-29T06:24:47;96148.00;;;9.10
15680;BMP180;15488;48.114;11.532;2023-01-29T06:27:16;96154.00;;;9.10
15680;BMP180;15488;48.114;11.532;2023-01-29T06:29:44;96156.00;;;9.10
15680;BMP180;15488;48.114;11.532;2023-01-29T06:32:11;96163.00;;;9.10
15680;BMP180;15488;48.114;11.532;2023-01-29T06:34:38;96152.00;;;9.10
15680;BMP180;15488;48.114;11.532;2023-01-29T06:37:06;96156.00;;;9.10
15680;BMP180;15488;48.114;11.532;2023-01-29T06:39:33;96162.00;;;9.10
15680;BMP180;15488;48.114;11.532;2023-01-29T06:42:01;96162.00;;;9.10
15680;BMP180;15488;48.114;11.532;2023-01-29T06:44:30;96171.00;;;9.00
15680;BMP180;15488;48.114;11.532;2023-01-29T06:46:57;96162.00;;;9.00
15680;BMP180;15488;48.114;11.532;2023-01-29T06:49:25;96164.00;;;9.00
15680;BMP180;15488;48.114;11.532;2023-01-29T06:51:52;96167.00;;;9.00
15680;BMP180;15488;48.114;11.532;2023-01-29T06:54:19;96175.00;;;9.00
15680;BMP180;15488;48.114;11.532;2023-01-29T06:56:47;96162.00;;;9.10
15680;BMP180;15488;48.114;11.532;2023-01-29T06:59:14;96164.00;;;9.00
15680;BMP180;15488;48.114;11.532;2023-01-29T07:01:44;96091.00;;;9.10
15680;BMP180;15488;48.114;11.532;2023-01-29T07:04:11;96157.00;;;9.10
15680;BMP180;15488;48.114;11.532;2023-01-29T07:06:39;96160.00;;;9.10
15680;BMP180;15488;48.114;11.532;2023-01-29T07:09:06;96160.00;;;9.10
15680;BMP180;15488;48.114;11.532;2023-01-29T07:11:34;96167.00;;;9.10
15680;BMP180;15488;48.114;11.532;2023-01-29T07:14:03;96165.00;;;9.10
15680;BMP180;15488;48.114;11.532;2023-01-29T07:16:30;96163.00;;;9.10
15680;BMP180;15488;48.114;11.532;2023-01-29T07:18:59;96162.00;;;9.10
15680;BMP180;15488;48.114;11.532;2023-01-29T07:21:27;96151.00;;;9.10
15680;BMP180;15488;48.114;11.532;2023-01-29T07:23:54;96152.00;;;9.10
15680;BMP180;15488;48.114;11.532;2023-01-29T07:26:22;96145.00;;;9.10
15680;BMP180;15488;48.114;11.532;2023-01-29T07:28:49;96148.00;;;9.20
15680;BMP180;15488;48.114;11.532;2023-01-29T07:31:17;96145.00;;;9.10
15680;BMP180;15488;48.114;11.532;2023-01-29T07:33:44;96146.00;;;9.10
15680;BMP180;15488;48.114;11.532;2023-01-29T07:36:13;96137.00;;;9.10
15680;BMP180;15488;48.114;11.532;2023-01-29T07:38:41;96137.00;;;9.10
15680;BMP180;15488;48.114;11.532;2023-01-29T07:41:10;96138.00;;;9.20
15680;BMP180;15488;48.114;11.532;2023-01-29T07:43:37;96140.00;;;9.20
15680;BMP180;15488;48.114;11.532;2023-01-29T07:46:05;96142.00;;;9.20
15680;BMP180;15488;48.114;11.532;2023-01-29T07:48:32;96134.00;;;9.20
15680;BMP180;15488;48.114;11.532;2023-01-29T07:51:00;96132.00;;;9.10
15680;BMP180;15488;48.114;11.532;2023-01-29T07:53:29;96130.00;;;9.20
15680;BMP180;15488;48.114;11.532;2023-01-29T07:55:57;96059.00;;;9.20
15680;BMP180;15488;48.114;11.532;2023-01-29T07:58:24;96133.00;;;9.20
15680;BMP180;15488;48.114;11.532;2023-01-29T08:00:52;96132.00;;;9.20
15680;BMP180;15488;48.114;11.532;2023-01-29T08:03:19;96131.00;;;9.20
15680;BMP180;15488;48.114;11.532;2023-01-29T08:05:47;96131.00;;;9.30
15680;BMP180;15488;48.114;11.532;2023-01-29T08:08:14;96131.00;;;9.20
15680;BMP180;15488;48.114;11.532;2023-01-29T08:10:43;96125.00;;;9.20
15680;BMP180;15488;48.114;11.532;2023-01-29T08:13:10;96126.00;;;9.20
15680;BMP180;15488;48.114;11.532;2023-01-29T08:15:38;96131.00;;;9.20
15680;BMP180;15488;48.114;11.532;2023-01-29T08:18:08;96133.00;;;9.20
15680;BMP180;15488;48.114;11.532;2023-01-29T08:20:35;96131.00;;;9.30
15680;BMP180;15488;48.114;11.532;2023-01-29T08:23:04;96124.00;;;9.30
15680;BMP180;15488;48.114;11.532;2023-01-29T08:25:34;96127.00;;;9.20
15680;BMP180;15488;48.114;11.532;2023-01-29T08:28:06;96130.00;;;9.30
15680;BMP180;15488;48.114;11.532;2023-01-29T08:30:34;96138.00;;;9.30
15680;BMP180;15488;48.114;11.532;2023-01-29T08:33:03;96136.00;;;9.30
15680;BMP180;15488;48.114;11.532;2023-01-29T08:35:30;96144.00;;;9.30
15680;BMP180;15488;48.114;11.532;2023-01-29T08:37:59;96147.00;;;9.30
15680;BMP180;15488;48.114;11.532;2023-01-29T08:40:29;96150.00;;;9.40
15680;BMP180;15488;48.114;11.532;2023-01-29T08:42:58;96151.00;;;9.30
15680;BMP180;15488;48.114;11.532;2023-01-29T08:45:26;96159.00;;;9.30
15680;BMP180;15488;48.114;11.532;2023-01-29T08:47:55;96164.00;;;9.40
15680;BMP180;15488;48.114;11.532;2023-01-29T08:50:22;96163.00;;;9.40
15680;BMP180;15488;48.114;11.532;2023-01-29T08:52:50;96170.00;;;9.50
15680;BMP180;15488;48.114;11.532;2023-01-29T08:55:17;96180.00;;;9.50
15680;BMP180;15488;48.114;11.532;2023-01-29T08:57:45;96163.00;;;9.50
15680;BMP180;15488;48.114;11.532;2023-01-29T09:00:13;96177.00;;;9.60
15680;BMP180;15488;48.114;11.532;2023-01-29T09:02:42;96172.00;;;9.50
15680;BMP180;15488;48.114;11.532;2023-01-29T09:05:10;96184.00;;;9.50
15680;BMP180;15488;48.114;11.532;2023-01-29T09:07:37;96184.00;;;9.60
15680;BMP180;15488;48.114;11.532;2023-01-29T09:10:06;96183.00;;;9.60
15680;BMP180;15488;48.114;11.532;2023-01-29T09:12:33;96184.00;;;9.70
15680;BMP180;15488;48.114;11.532;2023-01-29T09:15:01;96190.00;;;9.70
15680;BMP180;15488;48.114;11.532;2023-01-29T09:17:29;96192.00;;;9.70
15680;BMP180;15488;48.114;11.532;2023-01-29T09:19:57;96199.00;;;9.60
15680;BMP180;15488;48.114;11.532;2023-01-29T09:22:25;96201.00;;;9.70
15680;BMP180;15488;48.114;11.532;2023-01-29T09:24:52;96201.00;;;9.60
15680;BMP180;15488;48.114;11.532;2023-01-29T09:27:20;96203.00;;;9.60
15680;BMP180;15488;48.114;11.532;2023-01-29T09:29:47;96205.00;;;9.60
15680;BMP180;15488;48.114;11.532;2023-01-29T09:32:15;96148.00;;;9.60
15680;BMP180;15488;48.114;11.532;2023-01-29T09:34:42;96210.00;;;9.60
15680;BMP180;15488;48.114;11.532;2023-01-29T09:37:11;96209.00;;;9.70
15680;BMP180;15488;48.114;11.532;2023-01-29T09:39:39;96212.00;;;9.60
15680;BMP180;15488;48.114;11.532;2023-01-29T09:42:11;96217.00;;;9.60
15680;BMP180;15488;48.114;11.532;2023-01-29T09:44:48;96210.00;;;9.60
15680;BMP180;15488;48.114;11.532;2023-01-29T09:47:20;96223.00;;;9.60
15680;BMP180;15488;48.114;11.532;2023-01-29T09:49:54;96232.00;;;9.60
15680;BMP180;15488;48.114;11.532;2023-01-29T09:52:26;96229.00;;;9.70
15680;BMP180;15488;48.114;11.532;2023-01-29T09:54:59;96233.00;;;9.70
15680;BMP180;15488;48.114;11.532;2023-01-29T09:57:33;96230.00;;;9.70
15680;BMP180;15488;48.114;11.532;2023-01-29T10:00:08;96222.00;;;9.70
15680;BMP180;15488;48.114;11.532;2023-01-29T10:02:53;96215.00;;;9.80
15680;BMP180;15488;48.114;11.532;2023-01-29T10:05:41;96214.00;;;9.70
15680;BMP180;15488;48.114;11.532;2023-01-29T10:08:51;96218.00;;;9.70
15680;BMP180;15488;48.114;11.532;2023-01-29T10:11:34;96217.00;;;9.80
15680;BMP180;15488;48.114;11.532;2023-01-29T10:14:12;96218.00;;;9.80
15680;BMP180;15488;48.114;11.532;2023-01-29T10:16:49;96215.00;;;9.90
15680;BMP180;15488;48.114;11.532;2023-01-29T10:22:44;96206.00;;;9.80
15680;BMP180;15488;48.114;11.532;2023-01-29T10:25:18;96202.00;;;9.80
15680;BMP180;15488;48.114;11.532;2023-01-29T10:27:48;96201.00;;;9.90
15680;BMP180;15488;48.114;11.532;2023-01-29T10:30:27;96204.00;;;9.90
15680;BMP180;15488;48.114;11.532;2023-01-29T10:32:56;96205.00;;;9.90
15680;BMP180;15488;48.114;11.532;2023-01-29T10:35:29;96204.00;;;10.00
15680;BMP180;15488;48.114;11.532;2023-01-29T10:38:01;96198.00;;;10.00
15680;BMP180;15488;48.114;11.532;2023-01-29T10:40:44;96199.00;;;10.00
15680;BMP180;15488;48.114;11.532;2023-01-29T10:43:18;96197.00;;;10.10
15680;BMP180;15488;48.114;11.532;2023-01-29T10:45:53;96200.00;;;10.10
15680;BMP180;15488;48.114;11.532;2023-01-29T10:48:39;96193.00;;;10.10
15680;BMP180;15488;48.114;11.532;2023-01-29T10:51:18;96192.00;;;10.10
15680;BMP180;15488;48.114;11.532;2023-01-29T10:53:57;96194.00;;;10.20
15680;BMP180;15488;48.114;11.532;2023-01-29T10:56:48;96191.00;;;10.20
15680;BMP180;15488;48.114;11.532;2023-01-29T10:59:32;96190.00;;;10.10
15680;BMP180;15488;48.114;11.532;2023-01-29T11:02:07;96192.00;;;10.20
15680;BMP180;15488;48.114;11.532;2023-01-29T11:04:38;96189.00;;;10.20
15680;BMP180;15488;48.114;11.532;2023-01-29T11:07:05;96181.00;;;10.20
15680;BMP180;15488;48.114;11.532;2023-01-29T11:09:35;96172.00;;;10.30
15680;BMP180;15488;48.114;11.532;2023-01-29T11:12:12;96187.00;;;10.20
15680;BMP180;15488;48.114;11.532;2023-01-29T11:14:43;96174.00;;;10.30
15680;BMP180;15488;48.114;11.532;2023-01-29T11:17:15;96172.00;;;10.30
15680;BMP180;15488;48.114;11.532;2023-01-29T11:19:46;96172.00;;;10.30
15680;BMP180;15488;48.114;11.532;2023-01-29T11:22:16;96177.00;;;10.30
15680;BMP180;15488;48.114;11.532;2023-01-29T11:24:45;96170.00;;;10.20
15680;BMP180;15488;48.114;11.532;2023-01-29T11:27:24;96163.00;;;10.20
15680;BMP180;15488;48.114;11.532;2023-01-29T11:29:55;96163.00;;;10.30
15680;BMP180;15488;48.114;11.532;2023-01-29T11:32:28;96167.00;;;10.20
15680;BMP180;15488;48.114;11.532;2023-01-29T11:34:58;96159.00;;;10.20
15680;BMP180;15488;48.114;11.532;2023-01-29T11:37:33;96153.00;;;10.20
15680;BMP180;15488;48.114;11.532;2023-01-29T11:40:07;96156.00;;;10.20
15680;BMP180;15488;48.114;11.532;2023-01-29T11:42:55;96157.00;;;10.20
15680;BMP180;15488;48.114;11.532;2023-01-29T11:45:38;96155.00;;;10.20
15680;BMP180;15488;48.114;11.532;2023-01-29T11:48:13;96155.00;;;10.10
15680;BMP180;15488;48.114;11.532;2023-01-29T11:50:41;96142.00;;;10.20
15680;BMP180;15488;48.114;11.532;2023-01-29T11:53:23;96131.00;;;10.10
15680;BMP180;15488;48.114;11.532;2023-01-29T11:55:52;96122.00;;;10.10
15680;BMP180;15488;48.114;11.532;2023-01-29T11:58:26;96100.00;;;10.10
15680;BMP180;15488;48.114;11.532;2023-01-29T12:00:55;96085.00;;;10.10
15680;BMP180;15488;48.114;11.532;2023-01-29T12:03:29;96077.00;;;10.00
15680;BMP180;15488;48.114;11.532;2023-01-29T12:06:00;96071.00;;;10.10
15680;BMP180;15488;48.114;11.532;2023-01-29T12:08:33;96074.00;;;10.10
15680;BMP180;15488;48.114;11.532;2023-01-29T12:11:10;96064.00;;;10.10
15680;BMP180;15488;48.114;11.532;2023-01-29T12:13:40;96066.00;;;10.10
15680;BMP180;15488;48.114;11.532;2023-01-29T12:16:19;96067.00;;;10.10
15680;BMP180;15488;48.114;11.532;2023-01-29T12:18:52;96069.00;;;10.10
15680;BMP180;15488;48.114;11.532;2023-01-29T12:21:26;96067.00;;;10.20
15680;BMP180;15488;48.114;11.532;2023-01-29T12:23:59;96073.00;;;10.20
15680;BMP180;15488;48.114;11.532;2023-01-29T12:26:31;96073.00;;;10.20
15680;BMP180;15488;48.114;11.532;2023-01-29T12:29:14;96082.00;;;10.20
15680;BMP180;15488;48.114;11.532;2023-01-29T12:31:48;96078.00;;;10.30
15680;BMP180;15488;48.114;11.532;2023-01-29T12:34:22;96092.00;;;10.30
15680;BMP180;15488;48.114;11.532;2023-01-29T12:36:58;96089.00;;;10.20
15680;BMP180;15488;48.114;11.532;2023-01-29T12:39:27;96087.00;;;10.20
15680;BMP180;15488;48.114;11.532;2023-01-29T12:41:58;96085.00;;;10.20
15680;BMP180;15488;48.114;11.532;2023-01-29T12:44:34;96086.00;;;10.20
15680;BMP180;15488;48.114;11.532;2023-01-29T12:47:12;96073.00;;;10.20
15680;BMP180;15488;48.114;11.532;2023-01-29T12:49:41;96072.00;;;10.20
15680;BMP180;15488;48.114;11.532;2023-01-29T12:52:14;96065.00;;;10.20
15680;BMP180;15488;48.114;11.532;2023-01-29T12:54:45;96065.00;;;10.20
15680;BMP180;15488;48.114;11.532;2023-01-29T12:57:20;96056.00;;;10.20
15680;BMP180;15488;48.114;11.532;2023-01-29T12:59:52;96050.00;;;10.10
15680;BMP180;15488;48.114;11.532;2023-01-29T13:02:30;96058.00;;;10.20
15680;BMP180;15488;48.114;11.532;2023-01-29T13:05:02;96048.00;;;10.10
15680;BMP180;15488;48.114;11.532;2023-01-29T13:07:34;96041.00;;;10.10
15680;BMP180;15488;48.114;11.532;2023-01-29T13:10:09;96034.00;;;10.10
15680;BMP180;15488;48.114;11.532;2023-01-29T13:12:41;96031.00;;;10.10
15680;BMP180;15488;48.114;11.532;2023-01-29T13:15:20;96023.00;;;10.00
15680;BMP180;15488;48.114;11.532;2023-01-29T13:17:52;96012.00;;;10.00
15680;BMP180;15488;48.114;11.532;2023-01-29T13:20:23;96014.00;;;10.00
15680;BMP180;15488;48.114;11.532;2023-01-29T13:22:55;96009.00;;;10.00
15680;BMP180;15488;48.114;11.532;2023-01-29T13:25:25;96011.00;;;10.00
15680;BMP180;15488;48.114;11.532;2023-01-29T13:27:53;96008.00;;;10.00
15680;BMP180;15488;48.114;11.532;2023-01-29T13:30:27;96006.00;;;10.00
15680;BMP180;15488;48.114;11.532;2023-01-29T13:32:56;96013.00;;;10.00
15680;BMP180;15488;48.114;11.532;2023-01-29T13:35:34;96012.00;;;10.00
15680;BMP180;15488;48.114;11.532;2023-01-29T13:38:04;96002.00;;;9.90
15680;BMP180;15488;48.114;11.532;2023-01-29T13:40:33;96005.00;;;9.90
15680;BMP180;15488;48.114;11.532;2023-01-29T13:43:02;96005.00;;;9.90
15680;BMP180;15488;48.114;11.532;2023-01-29T13:45:34;96001.00;;;9.90
15680;BMP180;15488;48.114;11.532;2023-01-29T13:48:09;95997.00;;;9.90
15680;BMP180;15488;48.114;11.532;2023-01-29T13:50:40;95998.00;;;9.90
15680;BMP180;15488;48.114;11.532;2023-01-29T13:53:19;95994.00;;;9.90
15680;BMP180;15488;48.114;11.532;2023-01-29T13:55:48;95995.00;;;9.90
15680;BMP180;15488;48.114;11.532;2023-01-29T13:58:17;95988.00;;;9.90
15680;BMP180;15488;48.114;11.532;2023-01-29T14:00:52;95990.00;;;9.80
15680;BMP180;15488;48.114;11.532;2023-01-29T14:03:50;95990.00;;;9.90
15680;BMP180;15488;48.114;11.532;2023-01-29T14:06:44;95991.00;;;9.80
15680;BMP180;15488;48.114;11.532;2023-01-29T14:12:35;95974.00;;;9.80
15680;BMP180;15488;48.114;11.532;2023-01-29T14:18:26;95975.00;;;9.70
15680;BMP180;15488;48.114;11.532;2023-01-29T14:20:58;95978.00;;;9.70
15680;BMP180;15488;48.114;11.532;2023-01-29T14:23:43;95976.00;;;9.60
15680;BMP180;15488;48.114;11.532;2023-01-29T14:26:25;95974.00;;;9.50
15680;BMP180;15488;48.114;11.532;2023-01-29T14:29:01;95978.00;;;9.50
15680;BMP180;15488;48.114;11.532;2023-01-29T14:31:40;95980.00;;;9.50
15680;BMP180;15488;48.114;11.532;2023-01-29T14:34:19;95977.00;;;9.50
15680;BMP180;15488;48.114;11.532;2023-01-29T14:36:52;95981.00;;;9.50
15680;BMP180;15488;48.114;11.532;2023-01-29T14:39:40;95988.00;;;9.50
15680;BMP180;15488;48.114;11.532;2023-01-29T14:42:23;95997.00;;;9.50
15680;BMP180;15488;48.114;11.532;2023-01-29T14:45:06;95999.00;;;9.40
15680;BMP180;15488;48.114;11.532;2023-01-29T14:48:08;96012.00;;;9.40